createdAt,value
2018-06-23T00:01:12.337Z,29.93
2018-06-23T00:03:40.786Z,26.33
2018-06-23T00:06:09.326Z,25.57
2018-06-23T00:08:38.695Z,22.27
2018-06-23T00:11:07.218Z,18.53
2018-06-23T00:13:35.723Z,21.47
2018-06-23T00:16:04.558Z,19.97
2018-06-23T00:18:33.021Z,18.50
2018-06-23T00:21:01.675Z,28.30
2018-06-23T00:23:36.636Z,23.40
2018-06-23T00:26:10.779Z,18.20
2018-06-23T00:28:39.418Z,27.77
2018-06-23T00:31:08.117Z,22.50
2018-06-23T00:33:36.564Z,19.67
2018-06-23T00:36:05.064Z,27.77
2018-06-23T00:38:33.465Z,19.00
2018-06-23T00:41:01.955Z,26.97
2018-06-23T00:43:30.410Z,23.80
2018-06-23T00:45:59.017Z,22.23
2018-06-23T00:48:27.449Z,25.37
2018-06-23T00:50:55.946Z,24.63
2018-06-23T00:53:24.681Z,22.63
2018-06-23T00:55:53.213Z,18.77
2018-06-23T00:58:21.594Z,26.63
2018-06-23T01:00:49.797Z,21.63
2018-06-23T01:03:18.256Z,19.50
2018-06-23T01:05:46.746Z,22.47
2018-06-23T01:08:15.184Z,31.67
2018-06-23T01:10:43.672Z,27.83
2018-06-23T01:13:12.175Z,14.37
2018-06-23T01:15:40.631Z,19.20
2018-06-23T01:18:09.142Z,24.03
2018-06-23T01:20:37.592Z,20.47
2018-06-23T01:23:06.087Z,20.27
2018-06-23T01:25:34.665Z,21.43
2018-06-23T01:28:03.316Z,23.73
2018-06-23T01:30:31.842Z,24.20
2018-06-23T01:33:00.219Z,20.60
2018-06-23T01:35:28.716Z,30.80
2018-06-23T01:37:57.161Z,15.43
2018-06-23T01:40:25.669Z,16.80
2018-06-23T01:42:53.789Z,21.83
2018-06-23T01:45:22.292Z,21.30
2018-06-23T01:47:50.789Z,23.87
2018-06-23T01:50:19.356Z,21.63
2018-06-23T01:52:47.960Z,26.87
2018-06-23T01:55:16.432Z,22.20
2018-06-23T01:57:45.003Z,21.13
2018-06-23T02:00:13.740Z,24.90
2018-06-23T02:02:42.171Z,19.70
2018-06-23T02:05:10.641Z,15.40
2018-06-23T02:07:39.377Z,18.33
2018-06-23T02:10:07.765Z,24.97
2018-06-23T02:12:36.177Z,20.33
2018-06-23T02:15:09.673Z,19.67
2018-06-23T02:17:45.259Z,19.07
2018-06-23T02:20:19.113Z,25.40
2018-06-23T02:22:52.826Z,19.27
2018-06-23T02:25:26.938Z,26.00
2018-06-23T02:28:00.791Z,27.60
2018-06-23T02:30:40.079Z,22.07
2018-06-23T02:33:13.935Z,20.93
2018-06-23T02:35:42.656Z,17.67
2018-06-23T02:38:11.055Z,27.13
2018-06-23T02:40:40.054Z,28.33
2018-06-23T02:43:08.561Z,21.33
2018-06-23T02:45:36.744Z,19.50
2018-06-23T02:48:04.944Z,25.73
2018-06-23T02:50:33.369Z,23.23
2018-06-23T02:53:01.888Z,25.37
2018-06-23T02:55:30.314Z,22.23
2018-06-23T02:57:58.781Z,20.30
2018-06-23T03:00:27.310Z,20.93
2018-06-23T03:02:56.745Z,20.30
2018-06-23T03:05:25.253Z,23.03
2018-06-23T03:07:53.737Z,22.07
2018-06-23T03:10:22.211Z,25.57
2018-06-23T03:12:50.705Z,16.80
2018-06-23T03:15:19.188Z,23.03
2018-06-23T03:17:47.675Z,18.67
2018-06-23T03:20:16.188Z,25.40
2018-06-23T03:22:44.640Z,19.90
2018-06-23T03:25:13.164Z,19.53
2018-06-23T03:27:41.721Z,20.07
2018-06-23T03:30:10.164Z,16.97
2018-06-23T03:32:38.747Z,14.63
2018-06-23T03:35:07.253Z,22.53
2018-06-23T03:37:35.720Z,18.20
2018-06-23T03:40:04.332Z,14.23
2018-06-23T03:42:32.782Z,17.27
2018-06-23T03:45:01.250Z,16.53
2018-06-23T03:47:29.733Z,25.40
2018-06-23T03:49:58.633Z,16.73
2018-06-23T03:52:27.156Z,20.07
2018-06-23T03:54:55.595Z,21.80
2018-06-23T03:57:24.335Z,21.50
2018-06-23T03:59:52.753Z,17.80
2018-06-23T04:02:21.236Z,19.77
2018-06-23T04:04:49.965Z,19.37
2018-06-23T04:07:18.460Z,21.07
2018-06-23T04:09:46.879Z,21.03
2018-06-23T04:12:15.422Z,22.00
2018-06-23T04:14:43.935Z,20.43
2018-06-23T04:17:12.465Z,19.43
2018-06-23T04:19:40.901Z,21.40
2018-06-23T04:22:09.303Z,19.77
2018-06-23T04:24:37.784Z,21.23
2018-06-23T04:27:06.247Z,22.03
2018-06-23T04:29:34.760Z,24.77
2018-06-23T04:32:03.024Z,21.83
2018-06-23T04:34:31.509Z,18.67
2018-06-23T04:36:59.928Z,19.53
2018-06-23T04:39:28.451Z,20.47
2018-06-23T04:41:57.407Z,17.87
2018-06-23T04:44:26.032Z,15.53
2018-06-23T04:46:54.830Z,20.00
2018-06-23T04:49:23.291Z,21.97
2018-06-23T04:51:51.874Z,19.77
2018-06-23T04:54:20.370Z,16.73
2018-06-23T04:56:48.583Z,18.37
2018-06-23T04:59:17.139Z,19.83
2018-06-23T05:01:45.525Z,18.73
2018-06-23T05:04:14.126Z,18.17
2018-06-23T05:06:42.598Z,18.23
2018-06-23T05:09:11.024Z,18.70
2018-06-23T05:11:39.543Z,19.83
2018-06-23T05:14:08.090Z,16.53
2018-06-23T05:16:36.495Z,14.60
2018-06-23T05:19:04.917Z,16.23
2018-06-23T05:21:33.690Z,14.93
2018-06-23T05:24:02.062Z,19.70
2018-06-23T05:26:30.471Z,21.33
2018-06-23T05:28:59.008Z,18.90
2018-06-23T05:31:27.555Z,19.67
2018-06-23T05:33:56.162Z,13.00
2018-06-23T05:36:24.627Z,18.07
2018-06-23T05:38:53.358Z,18.50
2018-06-23T05:41:21.794Z,16.00
2018-06-23T05:43:50.272Z,15.40
2018-06-23T05:46:18.774Z,16.83
2018-06-23T05:48:47.480Z,20.07
2018-06-23T05:51:15.897Z,13.47
2018-06-23T05:53:44.369Z,23.17
2018-06-23T05:56:12.915Z,17.33
2018-06-23T05:58:41.344Z,16.47
2018-06-23T06:01:10.015Z,16.80
2018-06-23T06:03:38.446Z,21.07
2018-06-23T06:06:06.890Z,15.07
2018-06-23T06:08:35.404Z,18.47
2018-06-23T06:11:04.370Z,15.97
2018-06-23T06:13:32.854Z,20.10
2018-06-23T06:16:01.345Z,16.40
2018-06-23T06:18:29.842Z,21.33
2018-06-23T06:20:58.233Z,14.17
2018-06-23T06:23:26.741Z,20.00
2018-06-23T06:25:55.180Z,15.90
2018-06-23T06:28:23.625Z,15.57
2018-06-23T06:30:52.116Z,18.33
2018-06-23T06:33:20.565Z,15.27
2018-06-23T06:35:48.958Z,18.07
2018-06-23T06:38:18.013Z,14.43
2018-06-23T06:40:46.416Z,13.67
2018-06-23T06:43:14.952Z,22.27
2018-06-23T06:45:43.409Z,20.20
2018-06-23T06:48:11.871Z,12.93
2018-06-23T06:50:42.258Z,15.40
2018-06-23T06:53:10.676Z,19.47
2018-06-23T06:55:39.152Z,14.70
2018-06-23T06:58:07.711Z,17.27
2018-06-23T07:00:36.586Z,15.67
2018-06-23T07:03:05.067Z,14.13
2018-06-23T07:05:33.886Z,16.20
2018-06-23T07:08:02.258Z,18.70
2018-06-23T07:10:30.715Z,15.20
2018-06-23T07:12:59.282Z,15.00
2018-06-23T07:15:27.679Z,14.13
2018-06-23T07:17:56.185Z,14.40
2018-06-23T07:20:24.716Z,18.30
2018-06-23T07:22:53.162Z,14.37
2018-06-23T07:25:21.744Z,12.37
2018-06-23T07:27:50.808Z,15.10
2018-06-23T07:30:19.218Z,12.20
2018-06-23T07:32:47.721Z,14.53
2018-06-23T07:35:16.366Z,14.97
2018-06-23T07:37:44.672Z,13.73
2018-06-23T07:40:13.178Z,19.30
2018-06-23T07:42:41.559Z,21.77
2018-06-23T07:45:10.112Z,15.90
2018-06-23T07:47:38.412Z,12.73
2018-06-23T07:50:06.877Z,14.27
2018-06-23T07:52:35.622Z,11.13
2018-06-23T07:55:04.058Z,14.80
2018-06-23T07:57:32.503Z,15.30
2018-06-23T08:00:01.007Z,12.03
2018-06-23T08:02:29.454Z,12.37
2018-06-23T08:04:57.936Z,16.53
2018-06-23T08:07:26.695Z,14.67
2018-06-23T08:09:55.099Z,14.93
2018-06-23T08:12:23.628Z,17.53
2018-06-23T08:14:52.235Z,10.63
2018-06-23T08:17:20.724Z,13.17
2018-06-23T08:19:49.252Z,14.47
2018-06-23T08:22:17.707Z,12.43
2018-06-23T08:24:46.097Z,10.53
2018-06-23T08:27:14.640Z,15.70
2018-06-23T08:29:43.243Z,12.57
2018-06-23T08:32:11.736Z,13.53
2018-06-23T08:34:40.232Z,16.57
2018-06-23T08:37:08.710Z,17.80
2018-06-23T08:39:37.174Z,13.47
2018-06-23T08:42:05.662Z,11.47
2018-06-23T08:44:34.112Z,11.83
2018-06-23T08:47:02.625Z,15.30
2018-06-23T08:49:31.120Z,11.53
2018-06-23T08:51:59.574Z,13.57
2018-06-23T08:54:28.289Z,16.00
2018-06-23T08:56:56.800Z,10.73
2018-06-23T08:59:25.129Z,12.17
2018-06-23T09:01:53.633Z,16.30
2018-06-23T09:04:22.167Z,12.33
2018-06-23T09:06:51.809Z,11.13
2018-06-23T09:09:20.218Z,14.10
2018-06-23T09:11:48.655Z,14.43
2018-06-23T09:14:17.072Z,9.53
2018-06-23T09:16:45.536Z,12.23
2018-06-23T09:19:14.155Z,15.27
2018-06-23T09:21:42.538Z,11.30
2018-06-23T09:24:10.930Z,12.07
2018-06-23T09:26:39.345Z,14.33
2018-06-23T09:29:07.845Z,9.90
2018-06-23T09:31:36.251Z,13.33
2018-06-23T09:34:04.857Z,7.37
2018-06-23T09:36:33.376Z,10.47
2018-06-23T09:39:01.969Z,12.47
2018-06-23T09:41:30.488Z,9.60
2018-06-23T09:43:59.298Z,9.60
2018-06-23T09:46:27.825Z,9.03
2018-06-23T09:48:56.291Z,9.03
2018-06-23T09:51:24.728Z,8.40
2018-06-23T09:53:53.310Z,10.50
2018-06-23T09:56:22.000Z,9.87
2018-06-23T09:58:51.051Z,9.03
2018-06-23T10:01:19.491Z,9.23
2018-06-23T10:03:47.966Z,6.97
2018-06-23T10:06:16.395Z,9.87
2018-06-23T10:08:44.814Z,8.80
2018-06-23T10:11:13.329Z,9.70
2018-06-23T10:13:41.717Z,7.50
2018-06-23T10:16:10.231Z,6.83
2018-06-23T10:18:38.795Z,11.73
2018-06-23T10:21:07.331Z,8.63
2018-06-23T10:23:35.519Z,12.13
2018-06-23T10:26:03.970Z,10.40
2018-06-23T10:28:32.371Z,8.43
2018-06-23T10:31:00.994Z,6.10
2018-06-23T10:33:29.460Z,7.40
2018-06-23T10:35:57.890Z,9.30
2018-06-23T10:38:26.409Z,10.47
2018-06-23T10:40:54.858Z,10.87
2018-06-23T10:43:23.342Z,11.57
2018-06-23T10:45:52.091Z,6.90
2018-06-23T10:48:20.492Z,9.50
2018-06-23T10:50:48.920Z,7.50
2018-06-23T10:53:17.631Z,6.03
2018-06-23T10:55:46.065Z,14.57
2018-06-23T10:58:14.509Z,8.37
2018-06-23T11:00:43.051Z,7.40
2018-06-23T11:03:11.492Z,8.63
2018-06-23T11:05:40.009Z,7.90
2018-06-23T11:08:08.459Z,8.97
2018-06-23T11:10:36.960Z,6.07
2018-06-23T11:13:05.773Z,9.37
2018-06-23T11:15:34.241Z,8.57
2018-06-23T11:18:02.692Z,8.90
2018-06-23T11:20:31.314Z,12.27
2018-06-23T11:23:00.751Z,7.73
2018-06-23T11:25:29.220Z,8.17
2018-06-23T11:27:57.652Z,5.57
2018-06-23T11:30:26.129Z,4.53
2018-06-23T11:32:54.647Z,9.13
2018-06-23T11:35:23.064Z,6.67
2018-06-23T11:37:51.749Z,5.97
2018-06-23T11:40:20.290Z,5.57
2018-06-23T11:42:48.730Z,5.33
2018-06-23T11:45:16.905Z,6.97
2018-06-23T11:47:45.343Z,7.13
2018-06-23T11:50:13.862Z,6.23
2018-06-23T11:52:42.353Z,7.50
2018-06-23T11:55:10.804Z,8.30
2018-06-23T11:57:39.291Z,8.53
2018-06-23T12:00:08.012Z,7.47
2018-06-23T12:02:36.444Z,6.30
2018-06-23T12:05:05.783Z,8.67
2018-06-23T12:07:34.224Z,5.03
2018-06-23T12:10:02.639Z,10.37
2018-06-23T12:12:31.120Z,9.77
2018-06-23T12:14:59.284Z,8.93
2018-06-23T12:17:27.768Z,6.93
2018-06-23T12:19:56.397Z,8.70
2018-06-23T12:22:25.222Z,7.20
2018-06-23T12:24:53.432Z,6.37
2018-06-23T12:27:21.907Z,10.60
2018-06-23T12:29:50.387Z,6.70
2018-06-23T12:32:18.830Z,6.47
2018-06-23T12:34:47.766Z,8.43
2018-06-23T12:37:16.470Z,6.60
2018-06-23T12:39:45.074Z,9.80
2018-06-23T12:42:13.542Z,9.90
2018-06-23T12:44:41.984Z,9.27
2018-06-23T12:47:10.530Z,11.00
2018-06-23T12:49:39.110Z,11.17
2018-06-23T12:52:07.955Z,6.43
2018-06-23T12:54:36.657Z,8.20
2018-06-23T12:57:05.077Z,8.47
2018-06-23T12:59:33.628Z,10.97
2018-06-23T13:02:02.495Z,7.63
2018-06-23T13:04:31.185Z,9.63
2018-06-23T13:06:59.686Z,8.57
2018-06-23T13:09:28.136Z,5.33
2018-06-23T13:11:56.691Z,8.90
2018-06-23T13:14:25.328Z,6.10
2018-06-23T13:16:53.741Z,7.70
2018-06-23T13:19:22.228Z,5.27
2018-06-23T13:21:50.649Z,5.67
2018-06-23T13:24:19.072Z,4.67
2018-06-23T13:26:47.691Z,7.93
2018-06-23T13:29:16.171Z,6.97
2018-06-23T13:31:44.656Z,9.67
2018-06-23T13:34:13.208Z,8.63
2018-06-23T13:36:41.653Z,8.83
2018-06-23T13:39:10.953Z,9.00
2018-06-23T13:41:39.545Z,10.00
2018-06-23T13:44:07.932Z,8.43
2018-06-23T13:46:36.628Z,7.00
2018-06-23T13:49:05.590Z,8.63
2018-06-23T13:51:34.088Z,4.80
2018-06-23T13:54:04.855Z,7.63
2018-06-23T13:56:33.127Z,5.83
2018-06-23T13:59:01.876Z,6.60
2018-06-23T14:01:30.488Z,3.97
2018-06-23T14:03:58.895Z,4.53
2018-06-23T14:06:27.339Z,5.53
2018-06-23T14:08:55.668Z,3.83
2018-06-23T14:11:24.378Z,3.47
2018-06-23T14:13:52.820Z,5.57
2018-06-23T14:16:21.503Z,4.07
2018-06-23T14:18:49.904Z,5.57
2018-06-23T14:21:18.320Z,9.17
2018-06-23T14:23:47.151Z,3.50
2018-06-23T14:26:15.582Z,4.77
2018-06-23T14:28:44.032Z,5.17
2018-06-23T14:31:12.570Z,4.77
2018-06-23T14:33:41.043Z,4.40
2018-06-23T14:36:09.579Z,7.40
2018-06-23T14:38:38.113Z,3.93
2018-06-23T14:41:06.611Z,6.13
2018-06-23T14:43:35.258Z,8.13
2018-06-23T14:46:03.836Z,6.13
2018-06-23T14:48:32.277Z,5.97
2018-06-23T14:51:00.724Z,5.70
2018-06-23T14:53:29.416Z,8.87
2018-06-23T14:55:58.067Z,3.73
2018-06-23T14:58:26.538Z,5.53
2018-06-23T15:00:55.068Z,5.60
2018-06-23T15:03:23.572Z,5.43
2018-06-23T15:05:51.978Z,8.70
2018-06-23T15:08:31.851Z,5.67
2018-06-23T15:11:11.708Z,5.50
2018-06-23T15:13:40.136Z,9.87
2018-06-23T15:16:08.625Z,4.93
2018-06-23T15:18:37.140Z,5.50
2018-06-23T15:21:05.593Z,4.90
2018-06-23T15:23:34.170Z,5.40
2018-06-23T15:26:03.074Z,7.00
2018-06-23T15:28:31.592Z,7.07
2018-06-23T15:31:00.018Z,7.53
2018-06-23T15:33:28.411Z,5.70
2018-06-23T15:35:57.016Z,8.00
2018-06-23T15:38:25.466Z,4.77
2018-06-23T15:40:53.972Z,4.70
2018-06-23T15:43:22.150Z,2.90
2018-06-23T15:45:50.354Z,6.07
2018-06-23T15:48:18.883Z,6.63
2018-06-23T15:50:47.344Z,5.67
2018-06-23T15:53:15.767Z,6.87
2018-06-23T15:55:44.221Z,4.87
2018-06-23T15:58:12.686Z,4.97
2018-06-23T16:00:41.207Z,5.60
2018-06-23T16:03:09.654Z,4.40
2018-06-23T16:05:38.162Z,3.07
2018-06-23T16:08:06.618Z,3.97
2018-06-23T16:10:35.086Z,3.60
2018-06-23T16:13:03.636Z,5.87
2018-06-23T16:15:32.042Z,3.87
2018-06-23T16:18:00.530Z,5.60
2018-06-23T16:20:29.031Z,6.13
2018-06-23T16:22:57.479Z,5.07
2018-06-23T16:25:25.983Z,4.13
2018-06-23T16:27:54.478Z,4.50
2018-06-23T16:30:23.019Z,4.97
2018-06-23T16:32:51.508Z,4.63
2018-06-23T16:35:20.233Z,3.70
2018-06-23T16:37:48.492Z,4.13
2018-06-23T16:40:16.669Z,5.73
2018-06-23T16:42:52.061Z,4.37
2018-06-23T16:45:20.606Z,4.10
2018-06-23T16:47:48.979Z,3.90
2018-06-23T16:50:17.464Z,3.27
2018-06-23T16:52:45.906Z,3.53
2018-06-23T16:55:14.431Z,5.67
2018-06-23T16:57:44.249Z,3.77
2018-06-23T17:00:12.675Z,8.50
2018-06-23T17:02:41.172Z,6.93
2018-06-23T17:05:09.662Z,4.83
2018-06-23T17:07:38.470Z,3.07
2018-06-23T17:10:06.893Z,5.97
2018-06-23T17:12:35.417Z,5.40
2018-06-23T17:15:03.886Z,6.50
2018-06-23T17:17:32.290Z,4.73
2018-06-23T17:20:00.681Z,5.10
2018-06-23T17:22:29.112Z,5.10
2018-06-23T17:24:57.752Z,4.63
2018-06-23T17:27:26.316Z,5.03
2018-06-23T17:29:54.780Z,6.50
2018-06-23T17:32:23.509Z,5.67
2018-06-23T17:34:52.262Z,3.90
2018-06-23T17:37:20.949Z,6.33
2018-06-23T17:39:50.469Z,4.47
2018-06-23T17:42:18.985Z,4.43
2018-06-23T17:44:47.769Z,2.53
2018-06-23T17:47:16.157Z,6.63
2018-06-23T17:49:44.548Z,4.40
2018-06-23T17:52:12.970Z,4.87
2018-06-23T17:54:41.455Z,4.53
2018-06-23T17:57:10.013Z,5.87
2018-06-23T17:59:38.343Z,5.27
2018-06-23T18:02:07.407Z,5.23
2018-06-23T18:04:35.813Z,5.40
2018-06-23T18:07:04.215Z,7.80
2018-06-23T18:09:32.630Z,4.03
2018-06-23T18:12:01.037Z,7.50
2018-06-23T18:14:29.436Z,4.77
2018-06-23T18:16:57.821Z,6.20
2018-06-23T18:19:26.255Z,3.93
2018-06-23T18:21:54.662Z,4.27
2018-06-23T18:24:23.076Z,5.13
2018-06-23T18:26:51.445Z,4.87
2018-06-23T18:29:19.821Z,6.07
2018-06-23T18:31:48.386Z,5.23
2018-06-23T18:34:16.894Z,3.27
2018-06-23T18:36:45.285Z,6.03
2018-06-23T18:39:13.702Z,4.40
2018-06-23T18:41:42.135Z,7.47
2018-06-23T18:44:10.505Z,4.70
2018-06-23T18:46:38.901Z,5.80
2018-06-23T18:49:07.513Z,4.50
2018-06-23T18:51:35.962Z,5.63
2018-06-23T18:54:04.168Z,8.43
2018-06-23T18:56:32.777Z,5.27
2018-06-23T18:59:01.175Z,6.60
2018-06-23T19:01:29.571Z,6.00
2018-06-23T19:03:59.412Z,3.43
2018-06-23T19:06:27.833Z,6.03
2018-06-23T19:08:56.399Z,3.80
2018-06-23T19:11:25.147Z,5.03
2018-06-23T19:13:53.601Z,5.40
2018-06-23T19:16:22.185Z,5.30
2018-06-23T19:18:50.668Z,3.07
2018-06-23T19:21:19.180Z,4.53
2018-06-23T19:23:47.619Z,4.40
2018-06-23T19:26:16.241Z,7.57
2018-06-23T19:28:44.655Z,7.57
2018-06-23T19:31:13.400Z,5.63
2018-06-23T19:33:41.783Z,6.13
2018-06-23T19:36:10.183Z,6.23
2018-06-23T19:38:38.592Z,7.53
2018-06-23T19:41:24.950Z,7.30
2018-06-23T19:43:53.350Z,5.00
2018-06-23T19:46:21.730Z,4.53
2018-06-23T19:48:50.370Z,14.20
2018-06-23T19:51:18.602Z,5.73
2018-06-23T19:53:47.281Z,6.07
2018-06-23T19:56:15.689Z,5.00
2018-06-23T19:58:44.362Z,6.13
2018-06-23T20:01:12.855Z,6.80
2018-06-23T20:03:41.690Z,4.03
2018-06-23T20:06:10.097Z,4.63
2018-06-23T20:08:38.684Z,8.37
2018-06-23T20:11:13.449Z,5.17
2018-06-23T20:13:41.739Z,4.97
2018-06-23T20:16:10.282Z,5.13
2018-06-23T20:18:38.674Z,7.30
2018-06-23T20:21:07.116Z,9.33
2018-06-23T20:23:36.069Z,8.57
2018-06-23T20:26:04.465Z,4.67
2018-06-23T20:28:32.899Z,6.27
2018-06-23T20:31:01.300Z,7.87
2018-06-23T20:33:29.735Z,6.83
2018-06-23T20:35:58.267Z,5.20
2018-06-23T20:38:26.702Z,6.67
2018-06-23T20:40:55.183Z,6.53
2018-06-23T20:43:24.717Z,6.97
2018-06-23T20:45:53.173Z,6.77
2018-06-23T20:48:21.690Z,9.83
2018-06-23T20:50:50.476Z,7.00
2018-06-23T20:53:18.917Z,5.73
2018-06-23T20:55:47.416Z,9.17
2018-06-23T20:58:16.034Z,5.73
2018-06-23T21:00:45.801Z,8.67
2018-06-23T21:03:14.277Z,5.87
2018-06-23T21:05:42.910Z,4.00
2018-06-23T21:08:11.614Z,5.60
2018-06-23T21:10:47.873Z,6.30
2018-06-23T21:13:16.411Z,14.47
2018-06-23T21:15:44.871Z,8.57
2018-06-23T21:18:13.324Z,6.57
2018-06-23T21:20:42.034Z,12.07
2018-06-23T21:23:10.501Z,13.27
2018-06-23T21:25:38.897Z,6.33
2018-06-23T21:28:07.371Z,8.13
2018-06-23T21:30:35.785Z,4.67
2018-06-23T21:33:04.208Z,11.83
2018-06-23T21:35:32.851Z,6.17
